Time;durP1;ratioP1;P1;durP2;ratioP2;P2;SDS_P1;SDS_P2;PMS_P1;PMS_P2;Temp;Humidity;BMP_temperature;BMP_pressure;BME280_temperature;BME280_humidity;BME280_pressure;Samples;Min_cycle;Max_cycle;Signal;HPM_P1;HPM_P2
2023/08/02 00:00:39;;;;;;;4.70;3.55;;;;;;;20.95;58.67;92673.84;5038761;28;20507;-91
2023/08/02 00:03:07;;;;;;;5.35;3.63;;;;;;;20.95;58.60;92675.84;5071760;28;20039;-92
2023/08/02 00:05:32;;;;;;;4.70;3.22;;;;;;;20.98;58.72;92672.00;5055713;28;20541;-92
2023/08/02 00:07:58;;;;;;;4.70;3.70;;;;;;;20.96;58.64;92680.81;5038094;28;20040;-91
2023/08/02 00:10:23;;;;;;;4.85;3.42;;;;;;;20.95;58.63;92679.34;5055184;28;20474;-90
2023/08/02 00:12:51;;;;;;;5.40;3.45;;;;;;;20.95;58.71;92690.31;5038720;28;20512;-91
2023/08/02 00:15:16;;;;;;;5.00;3.58;;;;;;;20.96;58.77;92677.31;5039857;28;20032;-91
2023/08/02 00:17:42;;;;;;;5.65;4.03;;;;;;;20.97;58.75;92676.78;5055549;28;20113;-91
2023/08/02 00:20:07;;;;;;;5.38;3.63;;;;;;;20.93;58.71;92676.38;5037588;28;20521;-91
2023/08/02 00:22:33;;;;;;;7.70;3.92;;;;;;;20.95;58.58;92681.34;5052619;28;20490;-92
2023/08/02 00:24:58;;;;;;;5.05;3.90;;;;;;;20.94;58.60;92680.59;5055088;28;20047;-92
2023/08/02 00:27:24;;;;;;;5.03;3.45;;;;;;;20.95;58.77;92684.09;5074033;28;20047;-91
2023/08/02 00:29:49;;;;;;;4.50;3.35;;;;;;;20.95;58.59;92690.31;5056956;28;20039;-91
2023/08/02 00:32:15;;;;;;;5.38;3.83;;;;;;;20.96;58.67;92689.03;5054422;28;20044;-93
2023/08/02 00:34:40;;;;;;;4.85;3.33;;;;;;;20.95;58.50;92698.56;5052497;28;20040;-91
2023/08/02 00:37:07;;;;;;;5.22;3.60;;;;;;;20.95;58.70;92697.81;5053714;28;20059;-92
2023/08/02 00:39:32;;;;;;;4.35;3.45;;;;;;;20.96;58.63;92696.56;5055163;28;20044;-91
2023/08/02 00:41:58;;;;;;;4.38;3.67;;;;;;;20.93;58.42;92690.13;5038015;28;20067;-92
2023/08/02 00:44:23;;;;;;;4.88;3.45;;;;;;;20.92;59.05;92696.16;5050395;28;20037;-91
2023/08/02 00:46:48;;;;;;;4.72;3.50;;;;;;;20.92;58.72;92707.88;5054801;28;20040;-90
2023/08/02 00:49:14;;;;;;;4.03;3.63;;;;;;;20.92;58.71;92698.91;5054852;28;20496;-91
2023/08/02 00:51:39;;;;;;;4.50;3.35;;;;;;;20.92;58.72;92694.16;5053270;28;20081;-92
2023/08/02 00:54:05;;;;;;;6.63;3.72;;;;;;;20.93;58.79;92701.13;5054012;28;20500;-91
2023/08/02 00:56:31;;;;;;;5.53;3.40;;;;;;;20.97;58.59;92698.03;5036891;28;20388;-91
2023/08/02 00:58:56;;;;;;;7.35;3.50;;;;;;;20.96;58.44;92699.28;5037677;28;20108;-90
2023/08/02 01:01:22;;;;;;;6.35;4.00;;;;;;;20.92;58.73;92690.66;5062714;28;20036;-91
2023/08/02 01:03:47;;;;;;;5.82;3.70;;;;;;;20.95;58.55;92690.31;5053691;28;20052;-91
2023/08/02 01:06:21;;;;;;;5.43;3.85;;;;;;;20.94;58.72;92690.88;5037157;28;20071;-91
2023/08/02 01:08:49;;;;;;;4.25;3.40;;;;;;;20.97;58.63;92687.03;5065262;28;20044;-91
2023/08/02 01:11:29;;;;;;;5.72;3.42;;;;;;;20.94;58.49;92699.84;5054695;28;20047;-91
2023/08/02 01:13:55;;;;;;;4.47;3.10;;;;;;;20.92;58.59;92701.66;5037515;28;20047;-92
2023/08/02 01:16:23;;;;;;;5.15;3.30;;;;;;;20.92;58.59;92696.16;5069959;28;20036;-92
2023/08/02 01:18:49;;;;;;;5.45;3.10;;;;;;;20.94;58.70;92699.09;5018338;28;20037;-92
2023/08/02 01:21:14;;;;;;;5.47;3.45;;;;;;;20.92;58.59;92687.94;5043137;28;20406;-91
2023/08/02 01:23:39;;;;;;;4.57;3.63;;;;;;;20.93;58.57;92690.13;5054907;28;20117;-91
2023/08/02 01:26:05;;;;;;;4.68;3.60;;;;;;;20.91;58.66;92692.69;5037237;28;20405;-91
2023/08/02 01:28:33;;;;;;;4.40;3.53;;;;;;;20.92;58.50;92707.16;5053240;28;20459;-91
2023/08/02 01:30:58;;;;;;;3.95;3.13;;;;;;;20.92;58.50;92699.66;5085366;28;20069;-91
2023/08/02 01:33:23;;;;;;;6.50;3.47;;;;;;;20.93;58.51;92701.13;5053713;28;20055;-92
2023/08/02 01:35:49;;;;;;;4.82;3.15;;;;;;;20.93;58.45;92694.88;5052851;28;20074;-91
2023/08/02 01:38:15;;;;;;;4.88;3.20;;;;;;;20.93;58.38;92687.38;5053785;28;20036;-92
2023/08/02 01:40:40;;;;;;;5.00;3.50;;;;;;;20.90;58.69;92693.97;5056348;28;20043;-92
2023/08/02 01:43:06;;;;;;;5.72;3.47;;;;;;;20.91;58.91;92681.69;5053295;28;20067;-91
2023/08/02 01:45:31;;;;;;;3.33;2.83;;;;;;;20.93;58.51;92684.63;5036899;28;20048;-92
2023/08/02 01:47:58;;;;;;;5.53;3.28;;;;;;;20.92;58.47;92685.91;5031449;28;20045;-92
2023/08/02 01:50:23;;;;;;;4.53;3.20;;;;;;;20.91;58.84;92697.44;5029921;28;20036;-92
2023/08/02 01:52:49;;;;;;;3.58;2.88;;;;;;;20.91;58.63;92691.94;5013319;28;20056;-90
2023/08/02 01:55:17;;;;;;;4.30;2.72;;;;;;;20.93;58.52;92687.38;5015236;28;20040;-92
2023/08/02 01:57:42;;;;;;;4.20;2.80;;;;;;;20.92;58.48;92674.19;5029558;28;20044;-92
2023/08/02 02:00:08;;;;;;;4.50;3.22;;;;;;;20.94;58.06;92680.59;5015138;28;20044;-92
2023/08/02 02:02:33;;;;;;;4.30;2.95;;;;;;;20.94;58.37;92679.88;5029959;28;20044;-91
2023/08/02 02:04:58;;;;;;;4.65;2.88;;;;;;;20.91;58.49;92681.69;5029359;28;20036;-91
2023/08/02 02:07:24;;;;;;;5.00;3.35;;;;;;;20.91;58.99;92689.19;4997426;28;20407;-91
2023/08/02 02:09:49;;;;;;;3.13;2.40;;;;;;;20.93;58.42;92694.88;5005309;28;20045;-92
2023/08/02 02:12:15;;;;;;;3.78;2.70;;;;;;;20.90;58.56;92698.72;5028131;28;20498;-91
2023/08/02 02:14:40;;;;;;;5.15;3.63;;;;;;;20.92;58.34;92696.16;5011540;28;20609;-91
2023/08/02 02:17:05;;;;;;;4.00;2.97;;;;;;;20.93;58.26;92686.66;5010790;28;20087;-92
2023/08/02 02:19:31;;;;;;;4.32;2.70;;;;;;;20.91;58.29;92686.44;5027544;28;20048;-92
2023/08/02 02:21:56;;;;;;;4.32;2.90;;;;;;;20.93;58.15;92684.63;5032669;28;20048;-92
2023/08/02 02:24:23;;;;;;;6.50;3.80;;;;;;;20.90;58.45;92690.47;5036108;28;20041;-91
2023/08/02 02:26:49;;;;;;;3.00;2.60;;;;;;;20.88;58.56;92680.78;5067733;28;20120;-91
2023/08/02 02:29:14;;;;;;;5.18;2.95;;;;;;;20.88;58.41;92680.03;5051537;28;20066;-92
2023/08/02 02:31:40;;;;;;;4.50;2.90;;;;;;;20.90;58.54;92682.22;5069133;28;20501;-92
2023/08/02 02:34:05;;;;;;;4.30;3.20;;;;;;;20.90;58.55;92677.47;5051795;28;20097;-92
2023/08/02 02:36:31;;;;;;;4.22;3.35;;;;;;;20.90;58.35;92679.50;5035748;28;20051;-93
2023/08/02 02:38:56;;;;;;;4.22;2.70;;;;;;;20.90;58.27;92677.47;5052895;28;20040;-92
2023/08/02 02:41:21;;;;;;;4.05;3.20;;;;;;;20.92;58.37;92677.66;5051523;28;20445;-91
2023/08/02 02:43:47;;;;;;;4.38;3.00;;;;;;;20.93;58.14;92668.16;5053184;28;20040;-91
2023/08/02 02:46:12;;;;;;;2.78;2.50;;;;;;;20.90;58.35;92665.75;5053460;28;20044;-91
2023/08/02 02:48:38;;;;;;;4.65;2.78;;;;;;;20.91;58.39;92669.97;5069904;28;20113;-92
2023/08/02 02:51:03;;;;;;;3.95;2.70;;;;;;;20.89;58.11;92662.28;5051605;28;20032;-91
2023/08/02 02:53:29;;;;;;;4.00;2.90;;;;;;;20.90;58.45;92668.50;5053520;28;20040;-91
2023/08/02 02:55:56;;;;;;;3.78;3.00;;;;;;;20.89;58.48;92676.00;5051535;28;20040;-91
2023/08/02 02:58:21;;;;;;;3.80;2.92;;;;;;;20.91;58.40;92675.47;5052183;28;20040;-92
2023/08/02 03:00:47;;;;;;;4.43;3.05;;;;;;;20.90;58.18;92679.50;5055271;28;20128;-92
2023/08/02 03:03:12;;;;;;;2.97;2.67;;;;;;;20.88;58.28;92683.50;5050284;28;20044;-92
2023/08/02 03:05:38;;;;;;;4.43;3.05;;;;;;;20.90;58.39;92674.00;5055957;28;20039;-91
2023/08/02 03:08:04;;;;;;;4.90;2.88;;;;;;;20.90;58.36;92671.97;5067840;28;20044;-92
2023/08/02 03:10:29;;;;;;;3.60;2.60;;;;;;;20.91;58.15;92665.22;5058233;28;20043;-93
2023/08/02 03:12:55;;;;;;;3.30;2.65;;;;;;;20.90;58.40;92668.50;5072488;28;20055;-92
2023/08/02 03:15:20;;;;;;;3.70;2.80;;;;;;;20.87;58.32;92671.06;5038821;28;20047;-92
2023/08/02 03:17:45;;;;;;;3.45;2.47;;;;;;;20.89;58.10;92676.00;5055322;28;20058;-92
2023/08/02 03:20:11;;;;;;;4.07;2.80;;;;;;;20.89;58.16;92665.03;5039661;28;20036;-91
2023/08/02 03:22:36;;;;;;;4.90;2.75;;;;;;;20.87;58.19;92675.81;5056344;28;20661;-92
2023/08/02 03:25:02;;;;;;;3.97;3.15;;;;;;;20.88;58.29;92672.53;5056207;28;20398;-92
2023/08/02 03:27:27;;;;;;;6.78;3.10;;;;;;;20.91;58.15;92672.72;5053981;28;20044;-92
2023/08/02 03:29:52;;;;;;;4.90;2.90;;;;;;;20.88;58.27;92669.78;5060220;28;20527;-92
2023/08/02 03:32:18;;;;;;;61.97;43.58;;;;;;;20.95;58.04;92668.34;5057172;28;20045;-91
2023/08/02 03:34:43;;;;;;;22.83;12.27;;;;;;;21.02;57.97;92666.88;5040296;28;20445;-91
2023/08/02 03:37:09;;;;;;;6.97;4.97;;;;;;;21.06;57.80;92659.75;5056438;28;20044;-90
2023/08/02 03:39:35;;;;;;;86.20;51.47;;;;;;;21.07;57.78;92669.47;5041032;28;20032;-90
2023/08/02 03:42:01;;;;;;;4.50;3.65;;;;;;;21.11;57.75;92658.84;5072646;28;20520;-91
2023/08/02 03:44:27;;;;;;;67.25;29.13;;;;;;;21.09;57.57;92655.19;5053073;28;20052;-89
2023/08/02 03:46:52;;;;;;;30.92;21.85;;;;;;;21.15;57.56;92659.22;5073669;28;20067;-94
2023/08/02 03:49:19;;;;;;;115.70;45.70;;;;;;;21.10;57.63;92653.91;5045431;28;20040;-90
2023/08/02 03:51:44;;;;;;;69.43;25.92;;;;;;;21.06;57.59;92654.25;5073572;28;20040;-92
2023/08/02 03:54:10;;;;;;;104.90;35.08;;;;;;;21.10;57.56;92651.16;5058515;28;20044;-92
2023/08/02 03:56:35;;;;;;;5.85;4.00;;;;;;;21.01;57.55;92638.66;5056911;28;20295;-91
2023/08/02 03:59:01;;;;;;;64.80;22.75;;;;;;;21.03;57.63;92641.59;5057122;28;20032;-92
2023/08/02 04:01:26;;;;;;;9.90;7.90;;;;;;;21.01;57.76;92640.66;5049597;28;21017;-93
2023/08/02 04:03:52;;;;;;;12.07;7.57;;;;;;;21.00;57.82;92653.69;5058332;28;20059;-93
2023/08/02 04:06:17;;;;;;;58.88;12.88;;;;;;;20.99;57.57;92648.75;5073151;28;20044;-94
2023/08/02 04:08:42;;;;;;;53.15;12.10;;;;;;;21.00;57.71;92645.44;5075612;28;20036;-92
2023/08/02 04:11:08;;;;;;;95.63;16.95;;;;;;;21.01;57.59;92654.41;5055415;28;20036;-93
2023/08/02 04:13:34;;;;;;;92.25;15.38;;;;;;;21.01;57.49;92652.41;5074130;28;20300;-92
2023/08/02 04:15:59;;;;;;;37.33;9.93;;;;;;;21.09;56.83;92649.69;5056470;28;20054;-92
2023/08/02 04:18:25;;;;;;;36.28;8.93;;;;;;;20.94;56.60;92655.88;5054846;28;20032;-91
2023/08/02 04:20:59;;;;;;;24.48;10.90;;;;;;;20.95;56.52;92645.63;5072366;28;20090;-92
2023/08/02 04:23:26;;;;;;;33.63;8.82;;;;;;;21.06;56.22;92640.50;5042881;28;20390;-93
2023/08/02 04:25:51;;;;;;;24.08;6.38;;;;;;;20.98;55.84;92641.78;5059022;28;20040;-91
2023/08/02 04:28:17;;;;;;;14.50;5.35;;;;;;;20.93;55.76;92643.41;5054618;28;20508;-93
2023/08/02 04:30:42;;;;;;;18.02;5.28;;;;;;;20.95;55.58;92640.88;5035552;28;20502;-93
2023/08/02 04:33:08;;;;;;;31.67;9.93;;;;;;;20.88;55.72;92638.81;5053708;28;20168;-92
2023/08/02 04:35:34;;;;;;;61.45;26.17;;;;;;;21.01;55.74;92633.16;5075191;28;20047;-92
2023/08/02 04:37:59;;;;;;;39.70;20.90;;;;;;;20.99;55.75;92638.50;5057367;28;20477;-91
2023/08/02 04:40:26;;;;;;;23.33;9.65;;;;;;;20.98;55.65;92639.78;5067850;28;20032;-94
2023/08/02 04:42:51;;;;;;;27.40;8.73;;;;;;;20.85;55.74;92631.66;5057022;28;20032;-92
2023/08/02 04:45:18;;;;;;;17.90;7.10;;;;;;;20.86;56.04;92631.13;5055742;28;20043;-93
2023/08/02 04:47:43;;;;;;;21.52;6.47;;;;;;;20.81;56.21;92623.03;5064241;28;20051;-92
2023/08/02 04:50:09;;;;;;;35.97;6.80;;;;;;;20.81;56.40;92617.56;5030729;28;20582;-94
2023/08/02 04:52:34;;;;;;;26.50;7.13;;;;;;;20.80;56.36;92625.06;5027952;28;20048;-94
2023/08/02 04:55:00;;;;;;;15.10;6.10;;;;;;;20.73;56.64;92641.53;5033203;28;20488;-92
2023/08/02 04:57:26;;;;;;;22.88;6.15;;;;;;;20.75;56.53;92631.47;5055997;28;20040;-93
2023/08/02 04:59:53;;;;;;;22.02;6.32;;;;;;;20.77;56.76;92639.91;5049851;28;20031;-92
2023/08/02 05:02:20;;;;;;;32.55;7.72;;;;;;;20.71;56.78;92641.34;5071074;28;20047;-91
2023/08/02 05:04:53;;;;;;;32.83;7.80;;;;;;;20.72;57.17;92634.56;5055709;28;20086;-93
2023/08/02 05:07:19;;;;;;;23.00;7.47;;;;;;;20.64;57.18;92633.81;5047161;28;20058;-93
2023/08/02 05:09:45;;;;;;;58.72;27.55;;;;;;;20.62;57.36;92636.34;5053781;28;20032;-95
2023/08/02 05:12:10;;;;;;;52.03;22.83;;;;;;;20.63;57.35;92638.56;5055833;28;20044;-93
2023/08/02 05:14:36;;;;;;;38.88;19.00;;;;;;;20.62;57.23;92625.38;5061581;28;20047;-93
2023/08/02 05:17:01;;;;;;;29.05;12.38;;;;;;;20.58;57.34;92631.22;5034398;28;20528;-94
2023/08/02 05:19:27;;;;;;;25.33;13.43;;;;;;;20.56;57.37;92633.78;5054832;28;20064;-93
2023/08/02 05:21:52;;;;;;;25.52;10.27;;;;;;;20.66;56.95;92639.50;5038781;28;20097;-93
2023/08/02 05:24:19;;;;;;;24.13;9.65;;;;;;;20.57;57.31;92634.53;5054022;28;20051;-94
2023/08/02 05:26:44;;;;;;;20.08;8.77;;;;;;;20.59;56.97;92632.69;5062407;28;20525;-94
2023/08/02 05:29:10;;;;;;;29.50;11.27;;;;;;;20.62;56.87;92633.59;5057263;28;20054;-94
2023/08/02 05:31:35;;;;;;;28.80;13.23;;;;;;;20.59;56.88;92629.19;5057009;28;20398;-92
2023/08/02 05:34:01;;;;;;;61.53;25.75;;;;;;;20.53;57.11;92623.88;5048785;28;20460;-92
2023/08/02 05:36:27;;;;;;;52.30;18.75;;;;;;;20.55;56.87;92632.31;5040183;28;20040;-93
2023/08/02 05:38:55;;;;;;;23.98;13.43;;;;;;;20.53;57.18;92634.88;5056105;28;20047;-94
2023/08/02 05:41:20;;;;;;;36.78;14.77;;;;;;;20.54;57.28;92619.88;5074335;28;20040;-94
2023/08/02 05:43:46;;;;;;;93.97;25.73;;;;;;;20.51;57.24;92631.94;5065187;28;20140;-92
2023/08/02 05:46:11;;;;;;;88.05;19.73;;;;;;;20.51;57.19;92626.44;5040842;28;20068;-93
2023/08/02 05:48:39;;;;;;;61.25;17.17;;;;;;;20.53;57.23;92624.63;5065930;28;20596;-93
2023/08/02 05:51:04;;;;;;;75.05;14.25;;;;;;;20.60;56.90;92620.41;5042562;28;20032;-93
2023/08/02 05:53:30;;;;;;;64.40;16.65;;;;;;;20.60;56.96;92625.91;5053982;28;20051;-93
2023/08/02 05:55:58;;;;;;;84.97;23.08;;;;;;;20.68;56.90;92626.69;5056710;28;20036;-94
2023/08/02 05:58:24;;;;;;;85.80;20.27;;;;;;;20.70;57.14;92623.41;5066275;28;20040;-91
2023/08/02 06:00:51;;;;;;;72.47;20.25;;;;;;;20.70;56.96;92613.16;5068582;28;20232;-92
2023/08/02 06:03:16;;;;;;;101.65;24.80;;;;;;;20.74;56.89;92612.78;5053379;28;20048;-91
2023/08/02 06:05:42;;;;;;;102.60;36.50;;;;;;;20.80;57.08;92614.06;5002682;28;20048;-93
2023/08/02 06:08:08;;;;;;;118.10;35.40;;;;;;;20.80;56.92;92614.06;5001533;28;20439;-91
2023/08/02 06:10:34;;;;;;;108.68;31.27;;;;;;;20.85;56.72;92613.16;5010218;28;20475;-93
2023/08/02 06:13:02;;;;;;;94.07;31.15;;;;;;;20.87;56.92;92618.13;5029625;28;20053;-93
2023/08/02 06:15:29;;;;;;;125.07;55.00;;;;;;;21.02;56.67;92615.41;4996288;28;20065;-92
2023/08/02 06:17:55;;;;;;;177.70;117.72;;;;;;;21.08;56.56;92607.72;5018438;28;20426;-92
2023/08/02 06:20:20;;;;;;;201.80;84.45;;;;;;;21.08;56.28;92604.25;5031024;28;20034;-92
2023/08/02 06:22:46;;;;;;;84.40;38.88;;;;;;;21.05;56.07;92608.81;5029462;28;20672;-93
2023/08/02 06:25:12;;;;;;;88.47;33.45;;;;;;;20.99;56.16;92613.78;5035360;28;20038;-93
2023/08/02 06:27:38;;;;;;;71.20;33.03;;;;;;;20.99;56.33;92608.28;5010927;28;20055;-92
2023/08/02 06:30:08;;;;;;;75.07;36.88;;;;;;;21.01;56.31;92611.19;5021549;28;20050;-93
2023/08/02 06:32:54;;;;;;;64.57;29.38;;;;;;;21.01;56.41;92604.94;4989221;28;20515;-94
2023/08/02 06:35:54;;;;;;;50.60;28.73;;;;;;;21.04;56.14;92607.34;5012071;28;20024;-93
2023/08/02 06:38:19;;;;;;;63.60;29.98;;;;;;;21.04;56.06;92612.84;5047424;28;20075;-94
2023/08/02 06:40:46;;;;;;;63.30;32.05;;;;;;;21.04;56.11;92610.09;5007162;28;20038;-92
2023/08/02 06:43:11;;;;;;;62.63;31.20;;;;;;;21.06;56.25;92609.53;4990948;28;20122;-93
2023/08/02 06:45:37;;;;;;;55.03;28.13;;;;;;;21.07;56.25;92614.50;4976065;28;20127;-93
2023/08/02 06:48:05;;;;;;;67.05;30.02;;;;;;;21.06;56.23;92612.28;4989302;28;20053;-92
2023/08/02 06:50:36;;;;;;;61.08;30.48;;;;;;;21.07;55.98;92606.25;4973738;28;20068;-93
2023/08/02 06:53:01;;;;;;;53.78;27.23;;;;;;;21.08;55.99;92604.25;4973299;28;20065;-92
2023/08/02 06:55:27;;;;;;;58.25;30.13;;;;;;;21.07;56.13;92611.00;5007898;28;20842;-93
2023/08/02 06:57:52;;;;;;;67.22;32.45;;;;;;;21.09;56.27;92595.44;4982712;28;20042;-92
2023/08/02 07:00:18;;;;;;;80.85;42.50;;;;;;;21.13;56.05;92590.31;4972610;28;20034;-93
2023/08/02 07:02:43;;;;;;;78.85;38.33;;;;;;;21.14;56.17;92588.31;4980256;28;20069;-93
2023/08/02 07:05:09;;;;;;;80.10;40.63;;;;;;;21.15;55.96;92598.03;4987765;28;20042;-93
2023/08/02 07:07:35;;;;;;;74.53;38.42;;;;;;;21.13;55.80;92598.56;4978614;28;20049;-92
2023/08/02 07:10:02;;;;;;;97.47;39.15;;;;;;;21.19;55.85;92590.16;4974016;28;20507;-93
2023/08/02 07:12:27;;;;;;;118.95;50.85;;;;;;;21.24;55.83;92586.50;5032175;28;20045;-93
2023/08/02 07:14:53;;;;;;;125.85;55.40;;;;;;;21.19;55.67;92579.16;5040059;28;20631;-92
2023/08/02 07:17:19;;;;;;;150.50;60.28;;;;;;;21.19;56.14;92582.66;5055783;28;20045;-92
2023/08/02 07:19:45;;;;;;;169.52;63.38;;;;;;;21.22;55.83;92580.09;5053132;28;20041;-92
2023/08/02 07:22:17;;;;;;;161.05;59.47;;;;;;;21.22;55.75;92583.56;5060642;28;20272;-92
2023/08/02 07:24:56;;;;;;;147.90;55.28;;;;;;;21.22;55.85;92585.59;5051686;28;20086;-93
2023/08/02 07:27:21;;;;;;;143.98;51.33;;;;;;;21.19;56.10;92582.66;5045129;28;20037;-93
2023/08/02 07:29:52;;;;;;;135.48;55.28;;;;;;;21.21;55.49;92576.63;5042328;28;20110;-93
2023/08/02 07:32:18;;;;;;;120.40;54.95;;;;;;;21.36;55.59;92573.88;5059092;28;20038;-93
2023/08/02 07:34:46;;;;;;;124.32;55.95;;;;;;;21.24;55.79;92580.28;5029217;28;20080;-94
2023/08/02 07:37:17;;;;;;;134.52;53.42;;;;;;;21.26;55.85;92581.19;5018981;28;20055;-94
2023/08/02 07:39:43;;;;;;;125.72;51.95;;;;;;;21.26;55.72;92580.47;5065170;28;20066;-93
2023/08/02 07:42:17;;;;;;;115.47;48.20;;;;;;;21.29;55.55;92573.88;5064952;28;20662;-93
2023/08/02 07:44:42;;;;;;;130.60;55.42;;;;;;;21.23;55.79;92579.53;5051548;28;20514;-90
2023/08/02 07:47:09;;;;;;;128.05;52.75;;;;;;;21.24;55.78;92570.00;5047926;28;20089;-91
2023/08/02 07:49:35;;;;;;;107.00;45.97;;;;;;;21.20;55.77;92572.41;5066658;28;20061;-92
2023/08/02 07:52:01;;;;;;;98.82;41.47;;;;;;;21.24;55.74;92583.03;5072019;28;20040;-92
2023/08/02 07:54:29;;;;;;;100.45;39.47;;;;;;;21.20;55.95;92581.41;5060450;28;20028;-93
2023/08/02 07:56:54;;;;;;;56.10;23.38;;;;;;;21.17;55.45;92570.72;5069241;28;20040;-92
2023/08/02 07:59:20;;;;;;;52.45;20.35;;;;;;;21.12;55.76;92574.38;5064402;28;20043;-92
2023/08/02 08:01:45;;;;;;;65.18;23.42;;;;;;;21.12;55.48;92577.88;5048518;28;20060;-93
2023/08/02 08:04:11;;;;;;;76.43;25.67;;;;;;;21.13;55.76;92584.84;5055314;28;20035;-93
2023/08/02 08:06:37;;;;;;;71.53;30.42;;;;;;;21.17;55.47;92581.72;5069868;28;20048;-93
2023/08/02 08:09:02;;;;;;;101.30;38.97;;;;;;;21.16;55.77;92591.97;5054157;28;20043;-94
2023/08/02 08:11:28;;;;;;;113.35;47.25;;;;;;;21.22;55.51;92578.06;5057818;28;20052;-92
2023/08/02 08:13:54;;;;;;;113.30;48.70;;;;;;;21.20;55.86;92584.13;5026408;28;20544;-92
2023/08/02 08:16:20;;;;;;;120.63;47.47;;;;;;;21.18;55.66;92583.19;5040504;28;20044;-94
2023/08/02 08:18:45;;;;;;;93.40;41.58;;;;;;;21.19;55.61;92573.66;5043098;28;20566;-93
2023/08/02 08:21:11;;;;;;;97.97;42.13;;;;;;;21.22;55.64;92582.84;5041952;28;20048;-93
2023/08/02 08:23:36;;;;;;;89.38;42.58;;;;;;;21.21;55.60;92579.38;5058375;28;20036;-93
2023/08/02 08:26:02;;;;;;;104.50;48.38;;;;;;;21.28;55.72;92586.88;5045233;28;20060;-95
2023/08/02 08:28:28;;;;;;;152.32;55.50;;;;;;;21.24;55.56;92575.50;5060824;28;20116;-94
2023/08/02 08:31:03;;;;;;;159.48;52.45;;;;;;;21.26;55.90;92577.72;5064640;28;20101;-94
2023/08/02 08:33:29;;;;;;;135.60;49.72;;;;;;;21.26;55.63;92575.69;5059698;28;20047;-94
2023/08/02 08:35:54;;;;;;;138.82;48.95;;;;;;;21.26;55.59;92575.69;5061217;28;20047;-94
2023/08/02 08:38:20;;;;;;;119.63;45.47;;;;;;;21.31;55.67;92574.03;5060340;28;20032;-94
2023/08/02 08:40:55;;;;;;;118.75;44.65;;;;;;;21.27;55.51;92571.66;5056507;28;20029;-94
2023/08/02 08:43:24;;;;;;;99.40;42.63;;;;;;;21.29;55.48;92566.34;5052433;28;20060;-92
2023/08/02 08:45:50;;;;;;;91.38;42.78;;;;;;;21.34;55.43;92572.94;5096862;28;20082;-94
2023/08/02 08:48:15;;;;;;;99.30;41.47;;;;;;;21.32;55.25;92564.53;5075844;28;20070;-94
2023/08/02 08:50:42;;;;;;;98.10;44.30;;;;;;;21.34;55.22;92565.44;5069371;28;20493;-95
2023/08/02 08:53:09;;;;;;;119.70;47.00;;;;;;;21.31;55.30;92552.78;5054142;28;20039;-91
2023/08/02 08:55:34;;;;;;;95.00;42.95;;;;;;;21.33;55.62;92560.50;5077974;28;20028;-92
2023/08/02 08:58:01;;;;;;;105.70;47.63;;;;;;;21.32;55.25;92561.78;5077103;28;20485;-91
2023/08/02 09:00:27;;;;;;;93.72;41.95;;;;;;;21.30;55.47;92559.56;5059219;28;20127;-93
2023/08/02 09:02:53;;;;;;;72.22;39.58;;;;;;;21.31;55.36;92563.06;5068352;28;20501;-93
2023/08/02 09:05:18;;;;;;;105.45;47.80;;;;;;;21.32;55.29;92553.53;5040280;28;20144;-94
2023/08/02 09:07:44;;;;;;;88.82;39.47;;;;;;;21.33;55.33;92549.50;5061945;28;20541;-93
2023/08/02 09:10:16;;;;;;;85.25;41.10;;;;;;;21.32;55.37;92553.53;5062227;28;20122;-93
2023/08/02 09:12:44;;;;;;;108.50;49.05;;;;;;;21.35;55.71;92557.94;5062937;28;20407;-93
2023/08/02 09:15:09;;;;;;;138.85;58.00;;;;;;;21.35;55.26;92546.94;5064668;28;20047;-93
2023/08/02 09:17:50;;;;;;;128.55;58.28;;;;;;;21.32;55.40;92551.50;5062970;28;20526;-93
2023/08/02 09:20:17;;;;;;;136.77;58.28;;;;;;;21.33;55.49;92549.50;5073192;28;20068;-93
2023/08/02 09:22:42;;;;;;;125.82;57.80;;;;;;;21.35;55.59;92553.16;5057072;28;20044;-94
2023/08/02 09:25:10;;;;;;;121.28;54.72;;;;;;;21.34;55.61;92543.44;5059503;28;20401;-94
2023/08/02 09:27:35;;;;;;;110.22;49.08;;;;;;;21.33;55.44;92546.75;5061686;28;20043;-93
2023/08/02 09:30:00;;;;;;;103.78;45.95;;;;;;;21.37;55.58;92550.59;5055094;28;20375;-95
2023/08/02 09:32:26;;;;;;;130.70;51.22;;;;;;;21.37;55.47;92545.09;5056572;28;20051;-95
2023/08/02 09:34:56;;;;;;;112.82;49.45;;;;;;;21.34;55.79;92537.22;5054299;28;20055;-96
2023/08/02 09:37:32;;;;;;;102.80;46.33;;;;;;;21.35;55.44;92542.16;5040574;28;20044;-95
2023/08/02 09:39:58;;;;;;;86.50;40.70;;;;;;;21.34;55.64;92543.44;5059502;28;20130;-94
2023/08/02 09:42:27;;;;;;;81.72;39.72;;;;;;;21.37;55.51;92538.88;5040017;28;20059;-92
2023/08/02 09:44:58;;;;;;;90.05;45.75;;;;;;;21.37;55.32;92531.34;5063760;28;20545;-95
2023/08/02 09:47:24;;;;;;;89.80;44.78;;;;;;;21.35;55.34;92533.91;5053252;28;20111;-94
2023/08/02 09:50:06;;;;;;;85.43;40.30;;;;;;;21.36;55.44;92534.66;5060048;28;20048;-94
2023/08/02 09:52:32;;;;;;;82.57;38.08;;;;;;;21.37;55.59;92528.59;5058860;28;20067;-94
2023/08/02 09:54:58;;;;;;;73.63;36.25;;;;;;;21.37;55.64;92530.63;5043343;28;20036;-93
2023/08/02 09:57:27;;;;;;;78.90;38.17;;;;;;;21.36;55.27;92516.13;5047328;28;20576;-93
2023/08/02 10:00:00;;;;;;;70.47;34.35;;;;;;;21.36;55.33;92513.38;5054054;28;20044;-93
2023/08/02 10:02:25;;;;;;;63.85;33.60;;;;;;;21.40;55.29;92518.53;5070299;28;20043;-93
2023/08/02 10:04:55;;;;;;;71.60;32.70;;;;;;;21.40;55.36;92513.03;5037682;28;20054;-93
2023/08/02 10:07:20;;;;;;;75.80;36.33;;;;;;;21.37;55.34;92517.59;5052529;28;20169;-92
2023/08/02 10:09:46;;;;;;;62.42;35.80;;;;;;;21.39;55.41;92515.03;5069480;28;20427;-91
2023/08/02 10:12:14;;;;;;;51.15;29.80;;;;;;;21.38;55.44;92499.81;5052571;28;20040;-91
2023/08/02 10:14:39;;;;;;;60.65;30.38;;;;;;;21.38;55.24;92507.34;5053582;28;20044;-93
2023/08/02 10:17:05;;;;;;;81.38;34.25;;;;;;;21.37;55.38;92500.38;5042576;28;20048;-93
2023/08/02 10:19:32;;;;;;;87.00;35.85;;;;;;;21.39;55.48;92497.81;5052045;28;20051;-92
2023/08/02 10:21:58;;;;;;;82.55;34.13;;;;;;;21.38;55.54;92494.31;5052451;28;20044;-93
2023/08/02 10:24:25;;;;;;;67.32;33.00;;;;;;;21.39;55.38;92493.03;5035672;28;20036;-93
2023/08/02 10:26:54;;;;;;;72.57;32.38;;;;;;;21.37;55.38;92489.38;5060419;28;20063;-93
2023/08/02 10:29:20;;;;;;;74.13;33.33;;;;;;;21.37;55.43;92481.88;5071722;28;20039;-93
2023/08/02 10:31:45;;;;;;;65.75;30.63;;;;;;;21.37;55.83;92473.63;5072664;28;20062;-92
2023/08/02 10:34:36;;;;;;;62.80;31.75;;;;;;;21.38;55.50;92480.56;5056201;28;20474;-92
2023/08/02 10:37:02;;;;;;;64.25;29.33;;;;;;;21.39;55.41;92476.53;5093933;28;20044;-92
2023/08/02 10:39:45;;;;;;;93.32;28.38;;;;;;;21.44;55.50;92475.59;5035158;28;20071;-92
2023/08/02 10:42:17;;;;;;;49.20;25.67;;;;;;;21.43;55.28;92484.44;5068775;28;20454;-93
2023/08/02 10:45:09;;;;;;;50.88;26.00;;;;;;;21.41;55.15;92470.50;5036931;28;20052;-94
2023/08/02 10:47:36;;;;;;;38.65;21.60;;;;;;;21.35;54.97;92472.69;5070458;28;20058;-94
2023/08/02 10:50:02;;;;;;;44.95;20.40;;;;;;;21.36;54.71;92472.16;5058917;28;20043;-94
2023/08/02 10:52:32;;;;;;;35.33;18.63;;;;;;;21.38;54.92;92468.84;5041431;28;20055;-95
2023/08/02 10:55:07;;;;;;;38.70;20.65;;;;;;;21.34;54.88;92460.97;5070708;28;20126;-93
2023/08/02 10:57:33;;;;;;;95.57;53.45;;;;;;;21.33;55.20;92465.00;5070918;28;20052;-94
2023/08/02 10:59:59;;;;;;;64.38;36.80;;;;;;;21.38;54.73;92455.84;5054207;28;20071;-95
2023/08/02 11:02:25;;;;;;;59.95;32.00;;;;;;;21.40;54.88;92449.78;5073435;28;20083;-95
2023/08/02 11:04:50;;;;;;;60.67;34.83;;;;;;;21.39;54.79;92449.06;5039662;28;20051;-95
2023/08/02 11:07:18;;;;;;;64.65;36.33;;;;;;;21.43;54.79;92456.94;5058767;28;20390;-95
2023/08/02 11:09:44;;;;;;;51.72;29.60;;;;;;;21.45;54.92;92454.34;5063071;28;20040;-94
2023/08/02 11:12:14;;;;;;;52.42;26.42;;;;;;;21.46;55.00;92456.53;5043225;28;20055;-93
2023/08/02 11:14:42;;;;;;;49.28;24.23;;;;;;;21.45;55.05;92449.56;5038498;28;20096;-95
2023/08/02 11:17:07;;;;;;;48.40;26.13;;;;;;;21.45;54.99;92451.59;5055781;28;20094;-93
2023/08/02 11:19:33;;;;;;;52.38;29.15;;;;;;;21.58;55.33;92459.63;5036977;28;20044;-91